Surfer-19001 — FAB5302 — position and weather

sailwx.info

Track history (hours):
 
Tides and Currents Weather Stations Pressure Air Temp Water Temp Dewpoint Dewpoint Depression Visibility Wind Speed Wind Dir Waves Ship Positions

Surfer-19001

Last reported at 2017-Sep-16 11:09 UTC. Time now 2017-Sep-20 23:38 UTC.
Position S 05°16' E 011°33'.

Length 19 m; draft 0.9 m.

Type: Ship. MMSI: 227211680.

Date/timePositionNaut miles runAvg speedWind from/ knotsBaromVisibWave heightAir tempDewpointWater temp
2017-Sep-16 11:09S 05°16' E 011°33'427.1
2017-Sep-16 11:00S 05°19' E 011°30'611.0
2017-Sep-16 10:29S 05°23' E 011°27'0 0.0
2017-Sep-16 10:00S 05°23' E 011°27'0 0.9
2017-Sep-16 09:30S 05°23' E 011°27'0 0.9
2017-Sep-16 09:00S 05°23' E 011°27'0 0.0
2017-Sep-16 08:29S 05°23' E 011°27'0 0.0
2017-Sep-16 08:00S 05°23' E 011°27'0 0.0
2017-Sep-16 07:30S 05°23' E 011°27'0 0.0
2017-Sep-16 07:00S 05°23' E 011°27'0 0.0
2017-Sep-16 06:30S 05°23' E 011°27'0 0.0
2017-Sep-16 06:00S 05°23' E 011°27'0 0.8
2017-Sep-16 05:30S 05°23' E 011°27'713.5
2017-Sep-16 05:00S 05°17' E 011°23'3 7.0
2017-Sep-16 04:30S 05°20' E 011°25'4 7.2
2017-Sep-16 04:00S 05°23' E 011°27'0 0.0
2017-Sep-16 03:30S 05°23' E 011°27'0 0.0
2017-Sep-16 02:59S 05°23' E 011°27'0 0.0
2017-Sep-16 02:30S 05°23' E 011°27'0 0.0
2017-Sep-16 01:59S 05°23' E 011°27'0 0.0
2017-Sep-16 01:29S 05°23' E 011°27'0 0.0
2017-Sep-16 01:01S 05°23' E 011°27'0 0.0
2017-Sep-16 00:29S 05°23' E 011°27'0 0.0
2017-Sep-16 00:00S 05°23' E 011°27'0 0.0
2017-Sep-15 23:29S 05°23' E 011°27'0 0.0
2017-Sep-15 23:00S 05°23' E 011°27'0 0.0
2017-Sep-15 22:30S 05°23' E 011°27'0 0.0
2017-Sep-15 21:59S 05°23' E 011°27'0 0.0
2017-Sep-15 21:30S 05°23' E 011°27'0 0.0
2017-Sep-15 21:00S 05°23' E 011°27'0 0.0
2017-Sep-15 20:30S 05°23' E 011°27'0 0.0
2017-Sep-15 20:00S 05°23' E 011°27'0 0.0
2017-Sep-15 19:30S 05°23' E 011°27'0 0.0
2017-Sep-15 19:00S 05°23' E 011°27'1 1.4
2017-Sep-15 18:30S 05°23' E 011°26'1 1.4
2017-Sep-15 18:01S 05°23' E 011°27'4 7.7
2017-Sep-15 17:30S 05°20' E 011°25'3 6.3
2017-Sep-15 17:00S 05°17' E 011°23'713.5
2017-Sep-15 16:30S 05°23' E 011°27'0 0.9
2017-Sep-15 16:01S 05°23' E 011°27'0 0.0
2017-Sep-15 15:30S 05°23' E 011°27'0 0.0
2017-Sep-15 14:59S 05°23' E 011°27'0 0.0
2017-Sep-15 14:30S 05°23' E 011°27'0 0.0
2017-Sep-15 14:00S 05°23' E 011°27'1 1.0
2017-Sep-15 13:29S 05°23' E 011°27'0 1.0
2017-Sep-15 12:59S 05°23' E 011°27'0 0.0
2017-Sep-15 12:30S 05°23' E 011°27'0 0.0
2017-Sep-15 12:00S 05°23' E 011°27'0 0.0
2017-Sep-15 11:30S 05°23' E 011°27'0 0.0
2017-Sep-15 11:00S 05°23' E 011°27'0 0.0
2017-Sep-15 10:29S 05°23' E 011°27'0 0.0
2017-Sep-15 10:00S 05°23' E 011°27'0 0.0
2017-Sep-15 09:30S 05°23' E 011°27'0 0.0
2017-Sep-15 08:59S 05°23' E 011°27'0 0.0
2017-Sep-15 08:30S 05°23' E 011°27'0 0.0
2017-Sep-15 08:00S 05°23' E 011°27'0 0.0
2017-Sep-15 07:30S 05°23' E 011°27'0 0.0
2017-Sep-15 06:57S 05°23' E 011°27'0 0.0
2017-Sep-15 06:30S 05°23' E 011°27'0 0.9
2017-Sep-15 06:00S 05°23' E 011°26'0 1.0
2017-Sep-15 05:30S 05°23' E 011°27'713.6
2017-Sep-15 05:00S 05°17' E 011°23'4 8.2
2017-Sep-15 04:29S 05°21' E 011°25'3 5.9
2017-Sep-15 04:00S 05°23' E 011°27'0 0.0
2017-Sep-15 03:30S 05°23' E 011°27'0 0.0
2017-Sep-15 03:01S 05°23' E 011°27'0 0.0
2017-Sep-15 02:31S 05°23' E 011°27'0 0.0
2017-Sep-15 02:00S 05°23' E 011°27'0 0.0
2017-Sep-15 01:30S 05°23' E 011°27'0 0.0
2017-Sep-15 01:00S 05°23' E 011°27'0 0.0
2017-Sep-15 00:30S 05°23' E 011°27'0 0.0
2017-Sep-14 23:59S 05°23' E 011°27'0 0.0
2017-Sep-14 23:30S 05°23' E 011°27'0 0.0
2017-Sep-14 22:58S 05°23' E 011°27'0 0.0
2017-Sep-14 22:30S 05°23' E 011°27'0 0.0
2017-Sep-14 21:59S 05°23' E 011°27'0 0.0
2017-Sep-14 21:31S 05°23' E 011°27'0 0.0
2017-Sep-14 21:00S 05°23' E 011°27'0 0.0
2017-Sep-14 20:30S 05°23' E 011°27'0 0.0
2017-Sep-14 19:59S 05°23' E 011°27'0 0.0
2017-Sep-14 19:30S 05°23' E 011°27'0 0.0
2017-Sep-14 19:00S 05°23' E 011°27'0 0.0
2017-Sep-14 18:30S 05°23' E 011°27'0 0.0
2017-Sep-14 18:00S 05°23' E 011°27'0 0.9
2017-Sep-14 17:30S 05°23' E 011°27'713.1
2017-Sep-14 17:00S 05°17' E 011°23'713.5
2017-Sep-14 16:30S 05°23' E 011°27'0 0.9
2017-Sep-14 16:00S 05°23' E 011°27'0 0.0
2017-Sep-14 15:28S 05°23' E 011°27'0 0.0
2017-Sep-14 15:00S 05°23' E 011°27'0 0.0
2017-Sep-14 14:31S 05°23' E 011°27'0 0.0
2017-Sep-14 13:59S 05°23' E 011°27'0 0.0
2017-Sep-14 13:30S 05°23' E 011°27'0 0.0
2017-Sep-14 13:00S 05°23' E 011°27'0 0.0
2017-Sep-14 12:30S 05°23' E 011°27'0 0.0
2017-Sep-14 12:00S 05°23' E 011°27'0 0.0
2017-Sep-14 11:30S 05°23' E 011°27'0 0.0
2017-Sep-14 11:00S 05°23' E 011°27'0 0.0
2017-Sep-14 10:30S 05°23' E 011°27'0 0.0
2017-Sep-14 09:46S 05°23' E 011°27'0 0.0
2017-Sep-14 09:30S 05°23' E 011°27'0 0.0
2017-Sep-14 09:00S 05°23' E 011°27'0 0.0
2017-Sep-14 08:30S 05°23' E 011°27'0 0.0
2017-Sep-14 07:59S 05°23' E 011°27'0 0.0
2017-Sep-14 07:30S 05°23' E 011°27'0 0.0
2017-Sep-14 07:00S 05°23' E 011°27'0 0.0
2017-Sep-14 06:30S 05°23' E 011°27'0 0.0
2017-Sep-14 05:59S 05°23' E 011°27'0 0.9
2017-Sep-14 05:29S 05°23' E 011°27'713.8
2017-Sep-14 05:00S 05°17' E 011°23'4 8.1
2017-Sep-14 04:30S 05°21' E 011°25'3 6.1
2017-Sep-14 04:00S 05°23' E 011°27'0 0.0
2017-Sep-14 03:30S 05°23' E 011°27'0 0.0
2017-Sep-14 03:00S 05°23' E 011°27'0 0.0
2017-Sep-14 02:30S 05°23' E 011°27'0 0.0
2017-Sep-14 02:00S 05°23' E 011°27'0 0.0
2017-Sep-14 01:30S 05°23' E 011°27'0 0.0
2017-Sep-14 01:00S 05°23' E 011°27'0 0.0
2017-Sep-14 00:29S 05°23' E 011°27'0 0.0
2017-Sep-14 00:00S 05°23' E 011°27'0 0.0
2017-Sep-13 23:30S 05°23' E 011°27'0 0.0
2017-Sep-13 23:00S 05°23' E 011°27'0 0.0
2017-Sep-13 22:29S 05°23' E 011°27'0 0.0
2017-Sep-13 22:00S 05°23' E 011°27'0 0.0
2017-Sep-13 21:30S 05°23' E 011°27'0 0.0
2017-Sep-13 21:00S 05°23' E 011°27'0 0.0
2017-Sep-13 20:30S 05°23' E 011°27'0 0.0
2017-Sep-13 20:00S 05°23' E 011°27'0 0.0
2017-Sep-13 19:30S 05°23' E 011°27'0 0.0
2017-Sep-13 19:00S 05°23' E 011°27'0 0.0
2017-Sep-13 18:30S 05°23' E 011°27'0 0.0
2017-Sep-13 18:00S 05°23' E 011°27'1 1.1
2017-Sep-13 17:30S 05°23' E 011°26'713.2
2017-Sep-13 17:00S 05°17' E 011°23'713.3
2017-Sep-13 16:30S 05°23' E 011°27'0 0.0
2017-Sep-13 15:59S 05°23' E 011°27'0 1.0
2017-Sep-13 15:30S 05°23' E 011°27'0 0.0
2017-Sep-13 15:00S 05°23' E 011°27'0 0.0
2017-Sep-13 14:30S 05°23' E 011°27'0 0.0
2017-Sep-13 14:00S 05°23' E 011°27'0 0.0
2017-Sep-13 13:30S 05°23' E 011°27'1 1.1
2017-Sep-13 13:00S 05°23' E 011°27'1 1.0
2017-Sep-13 12:29S 05°23' E 011°27'0 0.0
2017-Sep-13 12:00S 05°23' E 011°27'0 0.0
2017-Sep-13 11:29S 05°23' E 011°27'4 8.9
2017-Sep-13 11:00S 05°19' E 011°25'3 5.4
2017-Sep-13 10:30S 05°22' E 011°26'2 3.4
2017-Sep-13 10:00S 05°23' E 011°27'0 0.0
2017-Sep-13 09:29S 05°23' E 011°27'0 0.0
2017-Sep-13 09:00S 05°23' E 011°27'0 0.0
2017-Sep-13 08:30S 05°23' E 011°27'0 0.0
2017-Sep-13 08:00S 05°23' E 011°27'0 0.0
2017-Sep-13 07:30S 05°23' E 011°27'0 0.0
2017-Sep-13 06:57S 05°23' E 011°27'0 0.0
2017-Sep-13 06:30S 05°23' E 011°27'0 0.0
2017-Sep-13 05:59S 05°23' E 011°27'2 3.8
2017-Sep-13 05:30S 05°22' E 011°26'611.2
2017-Sep-13 05:00S 05°17' E 011°23'4 7.5
2017-Sep-13 04:30S 05°20' E 011°24'4 7.3
2017-Sep-13 04:00S 05°23' E 011°27'0 0.0
2017-Sep-13 03:30S 05°23' E 011°27'0 0.0
2017-Sep-13 03:00S 05°23' E 011°27'0 0.0
2017-Sep-13 02:30S 05°23' E 011°27'0 0.0
2017-Sep-13 02:00S 05°23' E 011°27'0 0.0
2017-Sep-13 01:30S 05°23' E 011°27'0 0.0
2017-Sep-13 01:00S 05°23' E 011°27'0 0.0
2017-Sep-13 00:30S 05°23' E 011°27'0 0.0
2017-Sep-12 23:59S 05°23' E 011°27'0 0.0
2017-Sep-12 23:30S 05°23' E 011°27'0 0.1
2017-Sep-12 23:00S 05°23' E 011°27'0 0.0
2017-Sep-12 22:29S 05°23' E 011°27'0 0.0
2017-Sep-12 22:00S 05°23' E 011°27'0 0.0
2017-Sep-12 21:30S 05°23' E 011°27'0 0.0
2017-Sep-12 21:00S 05°23' E 011°27'0 0.0
2017-Sep-12 20:30S 05°23' E 011°27'0 0.0
2017-Sep-12 20:00S 05°23' E 011°27'0 0.0
2017-Sep-12 19:29S 05°23' E 011°27'0 0.0
2017-Sep-12 18:59S 05°23' E 011°27'0 0.0
2017-Sep-12 18:30S 05°23' E 011°27'0 0.0
2017-Sep-12 18:00S 05°23' E 011°27'0 0.0
2017-Sep-12 17:30S 05°23' E 011°27'713.6
2017-Sep-12 17:00S 05°17' E 011°23'611.8
2017-Sep-12 16:30S 05°23' E 011°26'1 1.4
2017-Sep-12 16:00S 05°23' E 011°27'0 0.0
2017-Sep-12 15:30S 05°23' E 011°27'0 0.1
2017-Sep-12 15:00S 05°23' E 011°27'0 0.0
2017-Sep-12 14:30S 05°23' E 011°27'0 0.0
2017-Sep-12 14:00S 05°23' E 011°27'0 0.0
2017-Sep-12 13:30S 05°23' E 011°27'0 0.0
2017-Sep-12 13:00S 05°23' E 011°27'0 0.0
2017-Sep-12 12:31S 05°23' E 011°27'0 0.0
2017-Sep-12 11:59S 05°23' E 011°27'0 0.0
2017-Sep-12 11:24S 05°23' E 011°27'0 0.0
2017-Sep-12 11:00S 05°23' E 011°27'0 0.0
2017-Sep-12 10:29S 05°23' E 011°27'0 0.0
2017-Sep-12 09:59S 05°23' E 011°27'0 0.0
2017-Sep-12 09:30S 05°23' E 011°27'0 0.0
2017-Sep-12 08:58S 05°23' E 011°27'0 0.0
2017-Sep-12 08:30S 05°23' E 011°27'0 0.0
2017-Sep-12 08:00S 05°23' E 011°27'0 0.0
2017-Sep-12 07:24S 05°23' E 011°27'0 0.0
2017-Sep-12 06:08S 05°23' E 011°27'0 0.0
2017-Sep-12 05:55S 05°23' E 011°27'0 1.1
2017-Sep-12 05:30S 05°23' E 011°27'713.6
2017-Sep-12 05:00S 05°17' E 011°23'3 6.5
2017-Sep-12 04:30S 05°20' E 011°24'4 7.2
2017-Sep-12 03:59S 05°23' E 011°27'0 0.0
2017-Sep-12 03:25S 05°23' E 011°27'0 0.0
2017-Sep-12 02:58S 05°23' E 011°27'0 0.0
2017-Sep-12 02:18S 05°23' E 011°27'0 0.0
2017-Sep-12 01:56S 05°23' E 011°27'0 0.0
2017-Sep-12 01:28S 05°23' E 011°27'0 0.0
2017-Sep-12 00:54S 05°23' E 011°27'0 0.0
2017-Sep-11 23:45S 05°23' E 011°27'0 0.0
2017-Sep-11 23:25S 05°23' E 011°27'0 0.0
2017-Sep-11 22:49S 05°23' E 011°27'0 0.0
2017-Sep-11 22:12S 05°23' E 011°27'0 0.0
2017-Sep-11 21:27S 05°23' E 011°27'0 0.0
2017-Sep-11 20:48S 05°23' E 011°27'0 0.0
2017-Sep-11 20:25S 05°23' E 011°27'0 0.0
2017-Sep-11 19:54S 05°23' E 011°27'0 0.0
2017-Sep-11 19:12S 05°23' E 011°27'0 0.0
2017-Sep-11 18:54S 05°23' E 011°27'0 0.0
2017-Sep-11 18:29S 05°23' E 011°27'0 0.0
2017-Sep-11 18:00S 05°23' E 011°27'2 4.3
2017-Sep-11 17:30S 05°21' E 011°26'5 9.9
2017-Sep-11 17:00S 05°17' E 011°23'713.3
2017-Sep-11 16:31S 05°23' E 011°27'1 1.0
2017-Sep-11 16:00S 05°23' E 011°26'0 0.0
2017-Sep-11 15:29S 05°23' E 011°26'0 0.0
2017-Sep-11 15:01S 05°23' E 011°26'0 0.0
2017-Sep-11 14:30S 05°23' E 011°26'0 0.0
2017-Sep-11 14:00S 05°23' E 011°26'0 0.0
2017-Sep-11 13:30S 05°23' E 011°27'0 0.0
2017-Sep-11 10:52S 05°23' E 011°27'0 0.0
2017-Sep-11 10:24S 05°23' E 011°27'0 0.0
2017-Sep-11 09:59S 05°23' E 011°27'0 0.0
2017-Sep-11 09:27S 05°23' E 011°27'0 0.0
2017-Sep-11 08:59S 05°23' E 011°27'0 0.4
2017-Sep-11 07:57S 05°23' E 011°27'0 0.4
2017-Sep-11 07:29S 05°23' E 011°27'1 0.4
2017-Sep-11 06:08S 05°23' E 011°27'0 0.0
2017-Sep-11 05:59S 05°23' E 011°27'3 4.5
2017-Sep-11 05:25S 05°21' E 011°25'510.7
2017-Sep-11 05:00S 05°17' E 011°23'4 8.4
2017-Sep-11 04:30S 05°21' E 011°25'3 1.7
2017-Sep-11 02:47S 05°23' E 011°27'0 0.0
2017-Sep-11 02:24S 05°23' E 011°27'0 0.0
2017-Sep-11 01:53S 05°23' E 011°27'0 0.1
2017-Sep-11 01:18S 05°23' E 011°27'0 0.0
2017-Sep-11 00:58S 05°23' E 011°27'0 0.0
2017-Sep-11 00:30S 05°23' E 011°27'0 0.0
2017-Sep-11 00:00S 05°23' E 011°27'0 0.0
2017-Sep-10 23:30S 05°23' E 011°27'0 0.0
2017-Sep-10 22:59S 05°23' E 011°27'0 0.0
2017-Sep-10 22:30S 05°23' E 011°27'0 0.0
2017-Sep-10 22:00S 05°23' E 011°27'0 0.0
2017-Sep-10 21:27S 05°23' E 011°27'0 0.1
2017-Sep-10 20:59S 05°23' E 011°27'0 0.0
2017-Sep-10 20:30S 05°23' E 011°27'0 0.0
2017-Sep-10 20:00S 05°23' E 011°27'0 0.0
2017-Sep-10 19:30S 05°23' E 011°27'0 0.0
2017-Sep-10 18:52S 05°23' E 011°27'0 0.0
2017-Sep-10 18:30S 05°23' E 011°27'0 0.0
2017-Sep-10 18:00S 05°23' E 011°27'0 0.1
2017-Sep-10 17:30S 05°23' E 011°27'713.2
2017-Sep-10 17:00S 05°18' E 011°23'4 7.1
2017-Sep-10 16:30S 05°21' E 011°25'3 4.6
2017-Sep-10 15:50S 05°23' E 011°27'0 0.0
2017-Sep-10 15:29S 05°23' E 011°27'0 0.0
2017-Sep-10 14:56S 05°23' E 011°27'0 0.0
2017-Sep-10 13:45S 05°23' E 011°27'0 0.0
2017-Sep-10 12:33S 05°23' E 011°27'0 0.1
2017-Sep-10 12:13S 05°23' E 011°27'0 0.2
2017-Sep-10 11:59S 05°23' E 011°27'0 0.0
2017-Sep-10 11:27S 05°23' E 011°27'612.2
2017-Sep-10 11:00S 05°19' E 011°24'2 4.8
2017-Sep-10 10:30S 05°21' E 011°25'3 6.2
2017-Sep-10 09:59S 05°23' E 011°27'0 0.1
2017-Sep-10 09:30S 05°23' E 011°27'0 0.0
2017-Sep-10 08:42S 05°23' E 011°27'0 0.2
2017-Sep-10 08:27S 05°23' E 011°27'0 0.1
2017-Sep-10 07:44S 05°23' E 011°27'0 0.1
2017-Sep-10 07:29S 05°23' E 011°27'0 0.0
2017-Sep-10 06:59S 05°23' E 011°27'0 0.0
2017-Sep-10 06:30S 05°23' E 011°27'0 0.0
2017-Sep-10 06:00S 05°23' E 011°27'1 3.0
2017-Sep-10 05:30S 05°22' E 011°26'611.1
2017-Sep-10 04:59S 05°17' E 011°23'3 6.2
2017-Sep-10 04:30S 05°20' E 011°25'4 4.5
2017-Sep-10 03:33S 05°23' E 011°27'0 0.1
2017-Sep-10 03:29S 05°23' E 011°27'0 0.0
2017-Sep-10 02:57S 05°23' E 011°27'0 0.0
2017-Sep-10 01:44S 05°23' E 011°27'0 0.0
2017-Sep-10 01:27S 05°23' E 011°27'0 0.0
2017-Sep-10 01:00S 05°23' E 011°27'0 0.0
2017-Sep-10 00:26S 05°23' E 011°27'0 0.0
2017-Sep-09 23:56S 05°23' E 011°27'0 0.1
2017-Sep-09 23:26S 05°23' E 011°27'0 0.0
2017-Sep-09 22:57S 05°23' E 011°27'0 0.0
2017-Sep-09 22:26S 05°23' E 011°27'0 0.1
2017-Sep-09 21:54S 05°23' E 011°27'0 0.0
2017-Sep-09 21:20S 05°23' E 011°27'0 0.0
2017-Sep-09 19:44S 05°23' E 011°27'0 0.0
2017-Sep-09 18:13S 05°23' E 011°27'312.4
2017-Sep-09 18:00S 05°21' E 011°29'611.5
2017-Sep-09 17:28S 05°17' E 011°33'1020.5
2017-Sep-09 17:00S 05°17' E 011°23'510.9
2017-Sep-09 16:30S 05°22' E 011°26'1 0.4
2017-Sep-09 13:26S 05°23' E 011°27'1 0.4
2017-Sep-09 11:27S 05°23' E 011°27'0 0.0
2017-Sep-09 11:00S 05°23' E 011°27'0 0.4
2017-Sep-09 10:26S 05°23' E 011°27'1 1.3
2017-Sep-09 09:59S 05°23' E 011°26'0 0.3
2017-Sep-09 09:30S 05°22' E 011°27'0 0.2
2017-Sep-09 09:00S 05°22' E 011°27'0 0.7
2017-Sep-09 08:30S 05°23' E 011°26'0 0.3
2017-Sep-09 07:57S 05°23' E 011°27'0 0.1
2017-Sep-09 07:31S 05°23' E 011°26'1 1.4
2017-Sep-09 07:00S 05°23' E 011°27'0 0.0
2017-Sep-09 06:29S 05°23' E 011°27'0 0.0
2017-Sep-09 06:00S 05°23' E 011°27'1 1.2
2017-Sep-09 05:29S 05°23' E 011°27'713.7
2017-Sep-09 05:00S 05°17' E 011°23'4 9.0
2017-Sep-09 04:30S 05°21' E 011°25'3 5.4
2017-Sep-09 03:59S 05°23' E 011°27'0 0.0
2017-Sep-09 03:30S 05°23' E 011°27'0 0.0
2017-Sep-09 02:56S 05°23' E 011°27'0 0.0
2017-Sep-09 02:27S 05°23' E 011°27'0 0.0
2017-Sep-09 01:56S 05°23' E 011°27'0 0.0
2017-Sep-09 01:13S 05°23' E 011°27'0 0.0
2017-Sep-09 01:00S 05°23' E 011°27'0 0.0
2017-Sep-09 00:29S 05°23' E 011°27'0 0.0
2017-Sep-08 23:59S 05°23' E 011°27'0 0.0
2017-Sep-08 23:12S 05°23' E 011°27'0 0.0
2017-Sep-08 22:58S 05°23' E 011°27'0 0.0
2017-Sep-08 22:30S 05°23' E 011°27'0 0.0
2017-Sep-08 22:00S 05°23' E 011°27'0 0.0
2017-Sep-08 21:26S 05°23' E 011°27'0 0.0
2017-Sep-08 20:58S 05°23' E 011°27'0 0.0
2017-Sep-08 20:30S 05°23' E 011°27'0 0.0
2017-Sep-08 20:00S 05°23' E 011°27'0 0.0
2017-Sep-08 19:30S 05°23' E 011°27'0 0.0
2017-Sep-08 18:58S 05°23' E 011°27'0 0.0
2017-Sep-08 18:30S 05°23' E 011°27'0 0.0
2017-Sep-08 18:00S 05°23' E 011°27'510.2
2017-Sep-08 17:30S 05°19' E 011°24'2 4.7
2017-Sep-08 17:00S 05°17' E 011°23'713.3
2017-Sep-08 16:30S 05°23' E 011°27'1 1.4
2017-Sep-08 16:00S 05°23' E 011°26'0 0.2
2017-Sep-08 15:30S 05°23' E 011°27'0 0.0
2017-Sep-08 15:00S 05°23' E 011°27'0 0.0
2017-Sep-08 14:30S 05°23' E 011°27'0 0.0
2017-Sep-08 14:00S 05°23' E 011°27'0 0.0
2017-Sep-08 13:26S 05°23' E 011°27'0 0.0
2017-Sep-08 12:59S 05°23' E 011°27'0 0.0
2017-Sep-08 12:26S 05°23' E 011°27'0 0.0
2017-Sep-08 11:58S 05°23' E 011°27'0 0.0
2017-Sep-08 11:29S 05°23' E 011°27'0 0.5
2017-Sep-08 10:58S 05°23' E 011°26'0 0.5
2017-Sep-08 10:30S 05°23' E 011°27'0 0.0
2017-Sep-08 10:00S 05°23' E 011°27'0 0.0
2017-Sep-08 09:30S 05°23' E 011°27'0 0.0
2017-Sep-08 08:58S 05°23' E 011°27'0 0.0
2017-Sep-08 08:30S 05°23' E 011°27'0 0.0
2017-Sep-08 07:55S 05°23' E 011°27'0 0.0
2017-Sep-08 07:28S 05°23' E 011°27'0 0.0
2017-Sep-08 07:00S 05°23' E 011°27'0 0.0
2017-Sep-08 06:30S 05°23' E 011°27'0 0.0
2017-Sep-08 06:00S 05°23' E 011°27'1 1.1
2017-Sep-08 05:30S 05°23' E 011°27'713.7
2017-Sep-08 05:00S 05°17' E 011°23'5 8.9
2017-Sep-08 04:30S 05°21' E 011°25'3 5.3
2017-Sep-08 04:00S 05°23' E 011°27'0 0.0
2017-Sep-08 03:31S 05°23' E 011°27'0 0.0
2017-Sep-08 02:59S 05°23' E 011°27'0 0.0
2017-Sep-08 02:30S 05°23' E 011°27'0 0.0
2017-Sep-08 02:00S 05°23' E 011°27'0 0.0
2017-Sep-08 01:30S 05°23' E 011°27'0 0.0
2017-Sep-08 01:00S 05°23' E 011°27'0 0.0
2017-Sep-08 00:29S 05°23' E 011°27'0 0.0
2017-Sep-08 00:00S 05°23' E 011°27'0 0.0
2017-Sep-07 23:24S 05°23' E 011°27'0 0.0
2017-Sep-07 23:00S 05°23' E 011°27'0 0.0
2017-Sep-07 22:31S 05°23' E 011°27'0 0.0
2017-Sep-07 22:01S 05°23' E 011°27'0 0.0
2017-Sep-07 21:29S 05°23' E 011°27'0 0.0
2017-Sep-07 20:59S 05°23' E 011°27'0 0.0
2017-Sep-07 20:29S 05°23' E 011°27'0 0.0
2017-Sep-07 20:00S 05°23' E 011°27'0 0.0
2017-Sep-07 19:30S 05°23' E 011°27'0 0.0
2017-Sep-07 19:01S 05°23' E 011°27'0 0.0
2017-Sep-07 18:24S 05°23' E 011°27'0 0.0
2017-Sep-07 18:01S 05°23' E 011°27'0 0.0
2017-Sep-07 17:27S 05°23' E 011°27'510.5
2017-Sep-07 17:00S 05°19' E 011°24'2 4.1
2017-Sep-07 16:30S 05°21' E 011°25'2 3.6
2017-Sep-07 16:00S 05°23' E 011°26'0 0.4
2017-Sep-07 15:30S 05°23' E 011°26'0 0.1
2017-Sep-07 15:00S 05°23' E 011°26'0 0.4
2017-Sep-07 14:29S 05°23' E 011°27'0 0.6
2017-Sep-07 14:00S 05°23' E 011°26'0 0.2
2017-Sep-07 13:29S 05°23' E 011°26'0 0.5
2017-Sep-07 13:00S 05°23' E 011°27'1 1.3
2017-Sep-07 12:30S 05°23' E 011°26'0 0.0
2017-Sep-07 12:00S 05°23' E 011°26'1 0.4
2017-Sep-07 10:08S 05°23' E 011°26'0 0.0
2017-Sep-07 10:00S 05°23' E 011°26'0 0.2
2017-Sep-07 09:29S 05°23' E 011°26'0 0.2
2017-Sep-07 09:00S 05°23' E 011°27'1 1.1
2017-Sep-07 08:30S 05°22' E 011°26'0 0.9
2017-Sep-07 07:58S 05°23' E 011°26'0 0.2
2017-Sep-07 07:30S 05°23' E 011°26'0 0.6
2017-Sep-07 07:00S 05°23' E 011°26'0 0.9
2017-Sep-07 06:29S 05°23' E 011°27'0 0.0
2017-Sep-07 05:59S 05°23' E 011°27'0 1.0
2017-Sep-07 05:30S 05°23' E 011°27'713.3
2017-Sep-07 04:59S 05°17' E 011°23'511.0
2017-Sep-07 04:30S 05°22' E 011°26'2 3.4
2017-Sep-07 04:00S 05°23' E 011°27'0 0.0
2017-Sep-07 03:30S 05°23' E 011°27'0 0.0
2017-Sep-07 03:00S 05°23' E 011°27'0 0.0
2017-Sep-07 02:30S 05°23' E 011°27'0 0.0
2017-Sep-07 02:00S 05°23' E 011°27'0 0.0
2017-Sep-07 01:30S 05°23' E 011°27'0 0.0
2017-Sep-07 01:00S 05°23' E 011°27'0 0.0
2017-Sep-07 00:30S 05°23' E 011°27'0 0.0
2017-Sep-06 23:59S 05°23' E 011°27'0 0.0
2017-Sep-06 23:30S 05°23' E 011°27'0 0.0
2017-Sep-06 23:00S 05°23' E 011°27'0 0.0
2017-Sep-06 22:30S 05°23' E 011°27'0 0.0
2017-Sep-06 22:00S 05°23' E 011°27'0 0.0
2017-Sep-06 21:30S 05°23' E 011°27'0 0.0
2017-Sep-06 21:00S 05°23' E 011°27'0 0.0
2017-Sep-06 20:30S 05°23' E 011°27'0 0.0
2017-Sep-06 20:00S 05°23' E 011°27'0 0.0
2017-Sep-06 19:30S 05°23' E 011°27'0 0.0
2017-Sep-06 19:00S 05°23' E 011°27'0 0.0
2017-Sep-06 18:30S 05°23' E 011°27'0 0.0
2017-Sep-06 17:52S 05°23' E 011°27'0 0.0
2017-Sep-06 17:30S 05°23' E 011°27'714.3
2017-Sep-06 17:00S 05°17' E 011°23'713.3
2017-Sep-06 16:30S 05°23' E 011°27'1 0.4
2017-Sep-06 14:57S 05°23' E 011°27'0 0.0
2017-Sep-06 14:26S 05°23' E 011°27'0 0.0
2017-Sep-06 14:00S 05°23' E 011°27'0 0.0
2017-Sep-06 13:30S 05°23' E 011°27'0 0.0
2017-Sep-06 13:00S 05°23' E 011°27'0 0.0
2017-Sep-06 12:30S 05°23' E 011°27'0 0.0
2017-Sep-06 12:00S 05°23' E 011°27'0 0.0
2017-Sep-06 11:30S 05°23' E 011°27'  
Track history (hours):
 
Tides and Currents Weather Stations Pressure Air Temp Water Temp Dewpoint Dewpoint Depression Visibility Wind Speed Wind Dir Waves Ship Positions

Surfer-19001

Last reported at 2017-Sep-16 11:09 UTC. Time now 2017-Sep-20 23:38 UTC.
Position S 05°16' E 011°33'.

Length 19 m; draft 0.9 m.

Type: Ship. MMSI: 227211680.

Date/timePositionNaut miles runAvg speedWind from/ knotsBaromVisibWave heightAir tempDewpointWater temp
2017-Sep-16 11:09S 05°16' E 011°33'427.1
2017-Sep-16 11:00S 05°19' E 011°30'611.0
2017-Sep-16 10:29S 05°23' E 011°27'0 0.0
2017-Sep-16 10:00S 05°23' E 011°27'0 0.9
2017-Sep-16 09:30S 05°23' E 011°27'0 0.9
2017-Sep-16 09:00S 05°23' E 011°27'0 0.0
2017-Sep-16 08:29S 05°23' E 011°27'0 0.0
2017-Sep-16 08:00S 05°23' E 011°27'0 0.0
2017-Sep-16 07:30S 05°23' E 011°27'0 0.0
2017-Sep-16 07:00S 05°23' E 011°27'0 0.0
2017-Sep-16 06:30S 05°23' E 011°27'0 0.0
2017-Sep-16 06:00S 05°23' E 011°27'0 0.8
2017-Sep-16 05:30S 05°23' E 011°27'713.5
2017-Sep-16 05:00S 05°17' E 011°23'3 7.0
2017-Sep-16 04:30S 05°20' E 011°25'4 7.2
2017-Sep-16 04:00S 05°23' E 011°27'0 0.0
2017-Sep-16 03:30S 05°23' E 011°27'0 0.0
2017-Sep-16 02:59S 05°23' E 011°27'0 0.0
2017-Sep-16 02:30S 05°23' E 011°27'0 0.0
2017-Sep-16 01:59S 05°23' E 011°27'0 0.0
2017-Sep-16 01:29S 05°23' E 011°27'0 0.0
2017-Sep-16 01:01S 05°23' E 011°27'0 0.0
2017-Sep-16 00:29S 05°23' E 011°27'0 0.0
2017-Sep-16 00:00S 05°23' E 011°27'0 0.0
2017-Sep-15 23:29S 05°23' E 011°27'0 0.0
2017-Sep-15 23:00S 05°23' E 011°27'0 0.0
2017-Sep-15 22:30S 05°23' E 011°27'0 0.0
2017-Sep-15 21:59S 05°23' E 011°27'0 0.0
2017-Sep-15 21:30S 05°23' E 011°27'0 0.0
2017-Sep-15 21:00S 05°23' E 011°27'0 0.0
2017-Sep-15 20:30S 05°23' E 011°27'0 0.0
2017-Sep-15 20:00S 05°23' E 011°27'0 0.0
2017-Sep-15 19:30S 05°23' E 011°27'0 0.0
2017-Sep-15 19:00S 05°23' E 011°27'1 1.4
2017-Sep-15 18:30S 05°23' E 011°26'1 1.4
2017-Sep-15 18:01S 05°23' E 011°27'4 7.7
2017-Sep-15 17:30S 05°20' E 011°25'3 6.3
2017-Sep-15 17:00S 05°17' E 011°23'713.5
2017-Sep-15 16:30S 05°23' E 011°27'0 0.9
2017-Sep-15 16:01S 05°23' E 011°27'0 0.0
2017-Sep-15 15:30S 05°23' E 011°27'0 0.0
2017-Sep-15 14:59S 05°23' E 011°27'0 0.0
2017-Sep-15 14:30S 05°23' E 011°27'0 0.0
2017-Sep-15 14:00S 05°23' E 011°27'1 1.0
2017-Sep-15 13:29S 05°23' E 011°27'0 1.0
2017-Sep-15 12:59S 05°23' E 011°27'0 0.0
2017-Sep-15 12:30S 05°23' E 011°27'0 0.0
2017-Sep-15 12:00S 05°23' E 011°27'0 0.0
2017-Sep-15 11:30S 05°23' E 011°27'0 0.0
2017-Sep-15 11:00S 05°23' E 011°27'0 0.0
2017-Sep-15 10:29S 05°23' E 011°27'0 0.0
2017-Sep-15 10:00S 05°23' E 011°27'0 0.0
2017-Sep-15 09:30S 05°23' E 011°27'0 0.0
2017-Sep-15 08:59S 05°23' E 011°27'0 0.0
2017-Sep-15 08:30S 05°23' E 011°27'0 0.0
2017-Sep-15 08:00S 05°23' E 011°27'0 0.0
2017-Sep-15 07:30S 05°23' E 011°27'0 0.0
2017-Sep-15 06:57S 05°23' E 011°27'0 0.0
2017-Sep-15 06:30S 05°23' E 011°27'0 0.9
2017-Sep-15 06:00S 05°23' E 011°26'0 1.0
2017-Sep-15 05:30S 05°23' E 011°27'713.6
2017-Sep-15 05:00S 05°17' E 011°23'4 8.2
2017-Sep-15 04:29S 05°21' E 011°25'3 5.9
2017-Sep-15 04:00S 05°23' E 011°27'0 0.0
2017-Sep-15 03:30S 05°23' E 011°27'0 0.0
2017-Sep-15 03:01S 05°23' E 011°27'0 0.0
2017-Sep-15 02:31S 05°23' E 011°27'0 0.0
2017-Sep-15 02:00S 05°23' E 011°27'0 0.0
2017-Sep-15 01:30S 05°23' E 011°27'0 0.0
2017-Sep-15 01:00S 05°23' E 011°27'0 0.0
2017-Sep-15 00:30S 05°23' E 011°27'0 0.0
2017-Sep-14 23:59S 05°23' E 011°27'0 0.0
2017-Sep-14 23:30S 05°23' E 011°27'0 0.0
2017-Sep-14 22:58S 05°23' E 011°27'0 0.0
2017-Sep-14 22:30S 05°23' E 011°27'0 0.0
2017-Sep-14 21:59S 05°23' E 011°27'0 0.0
2017-Sep-14 21:31S 05°23' E 011°27'0 0.0
2017-Sep-14 21:00S 05°23' E 011°27'0 0.0
2017-Sep-14 20:30S 05°23' E 011°27'0 0.0
2017-Sep-14 19:59S 05°23' E 011°27'0 0.0
2017-Sep-14 19:30S 05°23' E 011°27'0 0.0
2017-Sep-14 19:00S 05°23' E 011°27'0 0.0
2017-Sep-14 18:30S 05°23' E 011°27'0 0.0
2017-Sep-14 18:00S 05°23' E 011°27'0 0.9
2017-Sep-14 17:30S 05°23' E 011°27'713.1
2017-Sep-14 17:00S 05°17' E 011°23'713.5
2017-Sep-14 16:30S 05°23' E 011°27'0 0.9
2017-Sep-14 16:00S 05°23' E 011°27'0 0.0
2017-Sep-14 15:28S 05°23' E 011°27'0 0.0
2017-Sep-14 15:00S 05°23' E 011°27'0 0.0
2017-Sep-14 14:31S 05°23' E 011°27'0 0.0
2017-Sep-14 13:59S 05°23' E 011°27'0 0.0
2017-Sep-14 13:30S 05°23' E 011°27'0 0.0
2017-Sep-14 13:00S 05°23' E 011°27'0 0.0
2017-Sep-14 12:30S 05°23' E 011°27'0 0.0
2017-Sep-14 12:00S 05°23' E 011°27'0 0.0
2017-Sep-14 11:30S 05°23' E 011°27'0 0.0
2017-Sep-14 11:00S 05°23' E 011°27'0 0.0
2017-Sep-14 10:30S 05°23' E 011°27'0 0.0
2017-Sep-14 09:46S 05°23' E 011°27'0 0.0
2017-Sep-14 09:30S 05°23' E 011°27'0 0.0
2017-Sep-14 09:00S 05°23' E 011°27'0 0.0
2017-Sep-14 08:30S 05°23' E 011°27'0 0.0
2017-Sep-14 07:59S 05°23' E 011°27'0 0.0
2017-Sep-14 07:30S 05°23' E 011°27'0 0.0
2017-Sep-14 07:00S 05°23' E 011°27'0 0.0
2017-Sep-14 06:30S 05°23' E 011°27'0 0.0
2017-Sep-14 05:59S 05°23' E 011°27'0 0.9
2017-Sep-14 05:29S 05°23' E 011°27'713.8
2017-Sep-14 05:00S 05°17' E 011°23'4 8.1
2017-Sep-14 04:30S 05°21' E 011°25'3 6.1
2017-Sep-14 04:00S 05°23' E 011°27'0 0.0
2017-Sep-14 03:30S 05°23' E 011°27'0 0.0
2017-Sep-14 03:00S 05°23' E 011°27'0 0.0
2017-Sep-14 02:30S 05°23' E 011°27'0 0.0
2017-Sep-14 02:00S 05°23' E 011°27'0 0.0
2017-Sep-14 01:30S 05°23' E 011°27'0 0.0
2017-Sep-14 01:00S 05°23' E 011°27'0 0.0
2017-Sep-14 00:29S 05°23' E 011°27'0 0.0
2017-Sep-14 00:00S 05°23' E 011°27'0 0.0
2017-Sep-13 23:30S 05°23' E 011°27'0 0.0
2017-Sep-13 23:00S 05°23' E 011°27'0 0.0
2017-Sep-13 22:29S 05°23' E 011°27'0 0.0
2017-Sep-13 22:00S 05°23' E 011°27'0 0.0
2017-Sep-13 21:30S 05°23' E 011°27'0 0.0
2017-Sep-13 21:00S 05°23' E 011°27'0 0.0
2017-Sep-13 20:30S 05°23' E 011°27'0 0.0
2017-Sep-13 20:00S 05°23' E 011°27'0 0.0
2017-Sep-13 19:30S 05°23' E 011°27'0 0.0
2017-Sep-13 19:00S 05°23' E 011°27'0 0.0
2017-Sep-13 18:30S 05°23' E 011°27'0 0.0
2017-Sep-13 18:00S 05°23' E 011°27'1 1.1
2017-Sep-13 17:30S 05°23' E 011°26'713.2
2017-Sep-13 17:00S 05°17' E 011°23'713.3
2017-Sep-13 16:30S 05°23' E 011°27'0 0.0
2017-Sep-13 15:59S 05°23' E 011°27'0 1.0
2017-Sep-13 15:30S 05°23' E 011°27'0 0.0
2017-Sep-13 15:00S 05°23' E 011°27'0 0.0
2017-Sep-13 14:30S 05°23' E 011°27'0 0.0
2017-Sep-13 14:00S 05°23' E 011°27'0 0.0
2017-Sep-13 13:30S 05°23' E 011°27'1 1.1
2017-Sep-13 13:00S 05°23' E 011°27'1 1.0
2017-Sep-13 12:29S 05°23' E 011°27'0 0.0
2017-Sep-13 12:00S 05°23' E 011°27'0 0.0
2017-Sep-13 11:29S 05°23' E 011°27'4 8.9
2017-Sep-13 11:00S 05°19' E 011°25'3 5.4
2017-Sep-13 10:30S 05°22' E 011°26'2 3.4
2017-Sep-13 10:00S 05°23' E 011°27'0 0.0
2017-Sep-13 09:29S 05°23' E 011°27'0 0.0
2017-Sep-13 09:00S 05°23' E 011°27'0 0.0
2017-Sep-13 08:30S 05°23' E 011°27'0 0.0
2017-Sep-13 08:00S 05°23' E 011°27'0 0.0
2017-Sep-13 07:30S 05°23' E 011°27'0 0.0
2017-Sep-13 06:57S 05°23' E 011°27'0 0.0
2017-Sep-13 06:30S 05°23' E 011°27'0 0.0
2017-Sep-13 05:59S 05°23' E 011°27'2 3.8
2017-Sep-13 05:30S 05°22' E 011°26'611.2
2017-Sep-13 05:00S 05°17' E 011°23'4 7.5
2017-Sep-13 04:30S 05°20' E 011°24'4 7.3
2017-Sep-13 04:00S 05°23' E 011°27'0 0.0
2017-Sep-13 03:30S 05°23' E 011°27'0 0.0
2017-Sep-13 03:00S 05°23' E 011°27'0 0.0
2017-Sep-13 02:30S 05°23' E 011°27'0 0.0
2017-Sep-13 02:00S 05°23' E 011°27'0 0.0
2017-Sep-13 01:30S 05°23' E 011°27'0 0.0
2017-Sep-13 01:00S 05°23' E 011°27'0 0.0
2017-Sep-13 00:30S 05°23' E 011°27'0 0.0
2017-Sep-12 23:59S 05°23' E 011°27'0 0.0
2017-Sep-12 23:30S 05°23' E 011°27'0 0.1
2017-Sep-12 23:00S 05°23' E 011°27'0 0.0
2017-Sep-12 22:29S 05°23' E 011°27'0 0.0
2017-Sep-12 22:00S 05°23' E 011°27'0 0.0
2017-Sep-12 21:30S 05°23' E 011°27'0 0.0
2017-Sep-12 21:00S 05°23' E 011°27'0 0.0
2017-Sep-12 20:30S 05°23' E 011°27'0 0.0
2017-Sep-12 20:00S 05°23' E 011°27'0 0.0
2017-Sep-12 19:29S 05°23' E 011°27'0 0.0
2017-Sep-12 18:59S 05°23' E 011°27'0 0.0
2017-Sep-12 18:30S 05°23' E 011°27'0 0.0
2017-Sep-12 18:00S 05°23' E 011°27'0 0.0
2017-Sep-12 17:30S 05°23' E 011°27'713.6
2017-Sep-12 17:00S 05°17' E 011°23'611.8
2017-Sep-12 16:30S 05°23' E 011°26'1 1.4
2017-Sep-12 16:00S 05°23' E 011°27'0 0.0
2017-Sep-12 15:30S 05°23' E 011°27'0 0.1
2017-Sep-12 15:00S 05°23' E 011°27'0 0.0
2017-Sep-12 14:30S 05°23' E 011°27'0 0.0
2017-Sep-12 14:00S 05°23' E 011°27'0 0.0
2017-Sep-12 13:30S 05°23' E 011°27'0 0.0
2017-Sep-12 13:00S 05°23' E 011°27'0 0.0
2017-Sep-12 12:31S 05°23' E 011°27'0 0.0
2017-Sep-12 11:59S 05°23' E 011°27'0 0.0
2017-Sep-12 11:24S 05°23' E 011°27'0 0.0
2017-Sep-12 11:00S 05°23' E 011°27'0 0.0
2017-Sep-12 10:29S 05°23' E 011°27'0 0.0
2017-Sep-12 09:59S 05°23' E 011°27'0 0.0
2017-Sep-12 09:30S 05°23' E 011°27'0 0.0
2017-Sep-12 08:58S 05°23' E 011°27'0 0.0
2017-Sep-12 08:30S 05°23' E 011°27'0 0.0
2017-Sep-12 08:00S 05°23' E 011°27'0 0.0
2017-Sep-12 07:24S 05°23' E 011°27'0 0.0
2017-Sep-12 06:08S 05°23' E 011°27'0 0.0
2017-Sep-12 05:55S 05°23' E 011°27'0 1.1
2017-Sep-12 05:30S 05°23' E 011°27'713.6
2017-Sep-12 05:00S 05°17' E 011°23'3 6.5
2017-Sep-12 04:30S 05°20' E 011°24'4 7.2
2017-Sep-12 03:59S 05°23' E 011°27'0 0.0
2017-Sep-12 03:25S 05°23' E 011°27'0 0.0
2017-Sep-12 02:58S 05°23' E 011°27'0 0.0
2017-Sep-12 02:18S 05°23' E 011°27'0 0.0
2017-Sep-12 01:56S 05°23' E 011°27'0 0.0
2017-Sep-12 01:28S 05°23' E 011°27'0 0.0
2017-Sep-12 00:54S 05°23' E 011°27'0 0.0
2017-Sep-11 23:45S 05°23' E 011°27'0 0.0
2017-Sep-11 23:25S 05°23' E 011°27'0 0.0
2017-Sep-11 22:49S 05°23' E 011°27'0 0.0
2017-Sep-11 22:12S 05°23' E 011°27'0 0.0
2017-Sep-11 21:27S 05°23' E 011°27'0 0.0
2017-Sep-11 20:48S 05°23' E 011°27'0 0.0
2017-Sep-11 20:25S 05°23' E 011°27'0 0.0
2017-Sep-11 19:54S 05°23' E 011°27'0 0.0
2017-Sep-11 19:12S 05°23' E 011°27'0 0.0
2017-Sep-11 18:54S 05°23' E 011°27'0 0.0
2017-Sep-11 18:29S 05°23' E 011°27'0 0.0
2017-Sep-11 18:00S 05°23' E 011°27'2 4.3
2017-Sep-11 17:30S 05°21' E 011°26'5 9.9
2017-Sep-11 17:00S 05°17' E 011°23'713.3
2017-Sep-11 16:31S 05°23' E 011°27'1 1.0
2017-Sep-11 16:00S 05°23' E 011°26'0 0.0
2017-Sep-11 15:29S 05°23' E 011°26'0 0.0
2017-Sep-11 15:01S 05°23' E 011°26'0 0.0
2017-Sep-11 14:30S 05°23' E 011°26'0 0.0
2017-Sep-11 14:00S 05°23' E 011°26'0 0.0
2017-Sep-11 13:30S 05°23' E 011°27'0 0.0
2017-Sep-11 10:52S 05°23' E 011°27'0 0.0
2017-Sep-11 10:24S 05°23' E 011°27'0 0.0
2017-Sep-11 09:59S 05°23' E 011°27'0 0.0
2017-Sep-11 09:27S 05°23' E 011°27'0 0.0
2017-Sep-11 08:59S 05°23' E 011°27'0 0.4
2017-Sep-11 07:57S 05°23' E 011°27'0 0.4
2017-Sep-11 07:29S 05°23' E 011°27'1 0.4
2017-Sep-11 06:08S 05°23' E 011°27'0 0.0
2017-Sep-11 05:59S 05°23' E 011°27'3 4.5
2017-Sep-11 05:25S 05°21' E 011°25'510.7
2017-Sep-11 05:00S 05°17' E 011°23'4 8.4
2017-Sep-11 04:30S 05°21' E 011°25'3 1.7
2017-Sep-11 02:47S 05°23' E 011°27'0 0.0
2017-Sep-11 02:24S 05°23' E 011°27'0 0.0
2017-Sep-11 01:53S 05°23' E 011°27'0 0.1
2017-Sep-11 01:18S 05°23' E 011°27'0 0.0
2017-Sep-11 00:58S 05°23' E 011°27'0 0.0
2017-Sep-11 00:30S 05°23' E 011°27'0 0.0
2017-Sep-11 00:00S 05°23' E 011°27'0 0.0
2017-Sep-10 23:30S 05°23' E 011°27'0 0.0
2017-Sep-10 22:59S 05°23' E 011°27'0 0.0
2017-Sep-10 22:30S 05°23' E 011°27'0 0.0
2017-Sep-10 22:00S 05°23' E 011°27'0 0.0
2017-Sep-10 21:27S 05°23' E 011°27'0 0.1
2017-Sep-10 20:59S 05°23' E 011°27'0 0.0
2017-Sep-10 20:30S 05°23' E 011°27'0 0.0
2017-Sep-10 20:00S 05°23' E 011°27'0 0.0
2017-Sep-10 19:30S 05°23' E 011°27'0 0.0
2017-Sep-10 18:52S 05°23' E 011°27'0 0.0
2017-Sep-10 18:30S 05°23' E 011°27'0 0.0
2017-Sep-10 18:00S 05°23' E 011°27'0 0.1
2017-Sep-10 17:30S 05°23' E 011°27'713.2
2017-Sep-10 17:00S 05°18' E 011°23'4 7.1
2017-Sep-10 16:30S 05°21' E 011°25'3 4.6
2017-Sep-10 15:50S 05°23' E 011°27'0 0.0
2017-Sep-10 15:29S 05°23' E 011°27'0 0.0
2017-Sep-10 14:56S 05°23' E 011°27'0 0.0
2017-Sep-10 13:45S 05°23' E 011°27'0 0.0
2017-Sep-10 12:33S 05°23' E 011°27'0 0.1
2017-Sep-10 12:13S 05°23' E 011°27'0 0.2
2017-Sep-10 11:59S 05°23' E 011°27'0 0.0
2017-Sep-10 11:27S 05°23' E 011°27'612.2
2017-Sep-10 11:00S 05°19' E 011°24'2 4.8
2017-Sep-10 10:30S 05°21' E 011°25'3 6.2
2017-Sep-10 09:59S 05°23' E 011°27'0 0.1
2017-Sep-10 09:30S 05°23' E 011°27'0 0.0
2017-Sep-10 08:42S 05°23' E 011°27'0 0.2
2017-Sep-10 08:27S 05°23' E 011°27'0 0.1
2017-Sep-10 07:44S 05°23' E 011°27'0 0.1
2017-Sep-10 07:29S 05°23' E 011°27'0 0.0
2017-Sep-10 06:59S 05°23' E 011°27'0 0.0
2017-Sep-10 06:30S 05°23' E 011°27'0 0.0
2017-Sep-10 06:00S 05°23' E 011°27'1 3.0
2017-Sep-10 05:30S 05°22' E 011°26'611.1
2017-Sep-10 04:59S 05°17' E 011°23'3 6.2
2017-Sep-10 04:30S 05°20' E 011°25'4 4.5
2017-Sep-10 03:33S 05°23' E 011°27'0 0.1
2017-Sep-10 03:29S 05°23' E 011°27'0 0.0
2017-Sep-10 02:57S 05°23' E 011°27'0 0.0
2017-Sep-10 01:44S 05°23' E 011°27'0 0.0
2017-Sep-10 01:27S 05°23' E 011°27'0 0.0
2017-Sep-10 01:00S 05°23' E 011°27'0 0.0
2017-Sep-10 00:26S 05°23' E 011°27'0 0.0
2017-Sep-09 23:56S 05°23' E 011°27'0 0.1
2017-Sep-09 23:26S 05°23' E 011°27'0 0.0
2017-Sep-09 22:57S 05°23' E 011°27'0 0.0
2017-Sep-09 22:26S 05°23' E 011°27'0 0.1
2017-Sep-09 21:54S 05°23' E 011°27'0 0.0
2017-Sep-09 21:20S 05°23' E 011°27'0 0.0
2017-Sep-09 19:44S 05°23' E 011°27'0 0.0
2017-Sep-09 18:13S 05°23' E 011°27'312.4
2017-Sep-09 18:00S 05°21' E 011°29'611.5
2017-Sep-09 17:28S 05°17' E 011°33'1020.5
2017-Sep-09 17:00S 05°17' E 011°23'510.9
2017-Sep-09 16:30S 05°22' E 011°26'1 0.4
2017-Sep-09 13:26S 05°23' E 011°27'1 0.4
2017-Sep-09 11:27S 05°23' E 011°27'0 0.0
2017-Sep-09 11:00S 05°23' E 011°27'0 0.4
2017-Sep-09 10:26S 05°23' E 011°27'1 1.3
2017-Sep-09 09:59S 05°23' E 011°26'0 0.3
2017-Sep-09 09:30S 05°22' E 011°27'0 0.2
2017-Sep-09 09:00S 05°22' E 011°27'0 0.7
2017-Sep-09 08:30S 05°23' E 011°26'0 0.3
2017-Sep-09 07:57S 05°23' E 011°27'0 0.1
2017-Sep-09 07:31S 05°23' E 011°26'1 1.4
2017-Sep-09 07:00S 05°23' E 011°27'0 0.0
2017-Sep-09 06:29S 05°23' E 011°27'0 0.0
2017-Sep-09 06:00S 05°23' E 011°27'1 1.2
2017-Sep-09 05:29S 05°23' E 011°27'713.7
2017-Sep-09 05:00S 05°17' E 011°23'4 9.0
2017-Sep-09 04:30S 05°21' E 011°25'3 5.4
2017-Sep-09 03:59S 05°23' E 011°27'0 0.0
2017-Sep-09 03:30S 05°23' E 011°27'0 0.0
2017-Sep-09 02:56S 05°23' E 011°27'0 0.0
2017-Sep-09 02:27S 05°23' E 011°27'0 0.0
2017-Sep-09 01:56S 05°23' E 011°27'0 0.0
2017-Sep-09 01:13S 05°23' E 011°27'0 0.0
2017-Sep-09 01:00S 05°23' E 011°27'0 0.0
2017-Sep-09 00:29S 05°23' E 011°27'0 0.0
2017-Sep-08 23:59S 05°23' E 011°27'0 0.0
2017-Sep-08 23:12S 05°23' E 011°27'0 0.0
2017-Sep-08 22:58S 05°23' E 011°27'0 0.0
2017-Sep-08 22:30S 05°23' E 011°27'0 0.0
2017-Sep-08 22:00S 05°23' E 011°27'0 0.0
2017-Sep-08 21:26S 05°23' E 011°27'0 0.0
2017-Sep-08 20:58S 05°23' E 011°27'0 0.0
2017-Sep-08 20:30S 05°23' E 011°27'0 0.0
2017-Sep-08 20:00S 05°23' E 011°27'0 0.0
2017-Sep-08 19:30S 05°23' E 011°27'0 0.0
2017-Sep-08 18:58S 05°23' E 011°27'0 0.0
2017-Sep-08 18:30S 05°23' E 011°27'0 0.0
2017-Sep-08 18:00S 05°23' E 011°27'510.2
2017-Sep-08 17:30S 05°19' E 011°24'2 4.7
2017-Sep-08 17:00S 05°17' E 011°23'713.3
2017-Sep-08 16:30S 05°23' E 011°27'1 1.4
2017-Sep-08 16:00S 05°23' E 011°26'0 0.2
2017-Sep-08 15:30S 05°23' E 011°27'0 0.0
2017-Sep-08 15:00S 05°23' E 011°27'0 0.0
2017-Sep-08 14:30S 05°23' E 011°27'0 0.0
2017-Sep-08 14:00S 05°23' E 011°27'0 0.0
2017-Sep-08 13:26S 05°23' E 011°27'0 0.0
2017-Sep-08 12:59S 05°23' E 011°27'0 0.0
2017-Sep-08 12:26S 05°23' E 011°27'0 0.0
2017-Sep-08 11:58S 05°23' E 011°27'0 0.0
2017-Sep-08 11:29S 05°23' E 011°27'0 0.5
2017-Sep-08 10:58S 05°23' E 011°26'0 0.5
2017-Sep-08 10:30S 05°23' E 011°27'0 0.0
2017-Sep-08 10:00S 05°23' E 011°27'0 0.0
2017-Sep-08 09:30S 05°23' E 011°27'0 0.0
2017-Sep-08 08:58S 05°23' E 011°27'0 0.0
2017-Sep-08 08:30S 05°23' E 011°27'0 0.0
2017-Sep-08 07:55S 05°23' E 011°27'0 0.0
2017-Sep-08 07:28S 05°23' E 011°27'0 0.0
2017-Sep-08 07:00S 05°23' E 011°27'0 0.0
2017-Sep-08 06:30S 05°23' E 011°27'0 0.0
2017-Sep-08 06:00S 05°23' E 011°27'1 1.1
2017-Sep-08 05:30S 05°23' E 011°27'713.7
2017-Sep-08 05:00S 05°17' E 011°23'5 8.9
2017-Sep-08 04:30S 05°21' E 011°25'3 5.3
2017-Sep-08 04:00S 05°23' E 011°27'0 0.0
2017-Sep-08 03:31S 05°23' E 011°27'0 0.0
2017-Sep-08 02:59S 05°23' E 011°27'0 0.0
2017-Sep-08 02:30S 05°23' E 011°27'0 0.0
2017-Sep-08 02:00S 05°23' E 011°27'0 0.0
2017-Sep-08 01:30S 05°23' E 011°27'0 0.0
2017-Sep-08 01:00S 05°23' E 011°27'0 0.0
2017-Sep-08 00:29S 05°23' E 011°27'0 0.0
2017-Sep-08 00:00S 05°23' E 011°27'0 0.0
2017-Sep-07 23:24S 05°23' E 011°27'0 0.0
2017-Sep-07 23:00S 05°23' E 011°27'0 0.0
2017-Sep-07 22:31S 05°23' E 011°27'0 0.0
2017-Sep-07 22:01S 05°23' E 011°27'0 0.0
2017-Sep-07 21:29S 05°23' E 011°27'0 0.0
2017-Sep-07 20:59S 05°23' E 011°27'0 0.0
2017-Sep-07 20:29S 05°23' E 011°27'0 0.0
2017-Sep-07 20:00S 05°23' E 011°27'0 0.0
2017-Sep-07 19:30S 05°23' E 011°27'0 0.0
2017-Sep-07 19:01S 05°23' E 011°27'0 0.0
2017-Sep-07 18:24S 05°23' E 011°27'0 0.0
2017-Sep-07 18:01S 05°23' E 011°27'0 0.0
2017-Sep-07 17:27S 05°23' E 011°27'510.5
2017-Sep-07 17:00S 05°19' E 011°24'2 4.1
2017-Sep-07 16:30S 05°21' E 011°25'2 3.6
2017-Sep-07 16:00S 05°23' E 011°26'0 0.4
2017-Sep-07 15:30S 05°23' E 011°26'0 0.1
2017-Sep-07 15:00S 05°23' E 011°26'0 0.4
2017-Sep-07 14:29S 05°23' E 011°27'0 0.6
2017-Sep-07 14:00S 05°23' E 011°26'0 0.2
2017-Sep-07 13:29S 05°23' E 011°26'0 0.5
2017-Sep-07 13:00S 05°23' E 011°27'1 1.3
2017-Sep-07 12:30S 05°23' E 011°26'0 0.0
2017-Sep-07 12:00S 05°23' E 011°26'1 0.4
2017-Sep-07 10:08S 05°23' E 011°26'0 0.0
2017-Sep-07 10:00S 05°23' E 011°26'0 0.2
2017-Sep-07 09:29S 05°23' E 011°26'0 0.2
2017-Sep-07 09:00S 05°23' E 011°27'1 1.1
2017-Sep-07 08:30S 05°22' E 011°26'0 0.9
2017-Sep-07 07:58S 05°23' E 011°26'0 0.2
2017-Sep-07 07:30S 05°23' E 011°26'0 0.6
2017-Sep-07 07:00S 05°23' E 011°26'0 0.9
2017-Sep-07 06:29S 05°23' E 011°27'0 0.0
2017-Sep-07 05:59S 05°23' E 011°27'0 1.0
2017-Sep-07 05:30S 05°23' E 011°27'713.3
2017-Sep-07 04:59S 05°17' E 011°23'511.0
2017-Sep-07 04:30S 05°22' E 011°26'2 3.4
2017-Sep-07 04:00S 05°23' E 011°27'0 0.0
2017-Sep-07 03:30S 05°23' E 011°27'0 0.0
2017-Sep-07 03:00S 05°23' E 011°27'0 0.0
2017-Sep-07 02:30S 05°23' E 011°27'0 0.0
2017-Sep-07 02:00S 05°23' E 011°27'0 0.0
2017-Sep-07 01:30S 05°23' E 011°27'0 0.0
2017-Sep-07 01:00S 05°23' E 011°27'0 0.0
2017-Sep-07 00:30S 05°23' E 011°27'0 0.0
2017-Sep-06 23:59S 05°23' E 011°27'0 0.0
2017-Sep-06 23:30S 05°23' E 011°27'0 0.0
2017-Sep-06 23:00S 05°23' E 011°27'0 0.0
2017-Sep-06 22:30S 05°23' E 011°27'0 0.0
2017-Sep-06 22:00S 05°23' E 011°27'0 0.0
2017-Sep-06 21:30S 05°23' E 011°27'0 0.0
2017-Sep-06 21:00S 05°23' E 011°27'0 0.0
2017-Sep-06 20:30S 05°23' E 011°27'0 0.0
2017-Sep-06 20:00S 05°23' E 011°27'0 0.0
2017-Sep-06 19:30S 05°23' E 011°27'0 0.0
2017-Sep-06 19:00S 05°23' E 011°27'0 0.0
2017-Sep-06 18:30S 05°23' E 011°27'0 0.0
2017-Sep-06 17:52S 05°23' E 011°27'0 0.0
2017-Sep-06 17:30S 05°23' E 011°27'714.3
2017-Sep-06 17:00S 05°17' E 011°23'713.3
2017-Sep-06 16:30S 05°23' E 011°27'1 0.4
2017-Sep-06 14:57S 05°23' E 011°27'0 0.0
2017-Sep-06 14:26S 05°23' E 011°27'0 0.0
2017-Sep-06 14:00S 05°23' E 011°27'0 0.0
2017-Sep-06 13:30S 05°23' E 011°27'0 0.0
2017-Sep-06 13:00S 05°23' E 011°27'0 0.0
2017-Sep-06 12:30S 05°23' E 011°27'0 0.0
2017-Sep-06 12:00S 05°23' E 011°27'0 0.0
2017-Sep-06 11:30S 05°23' E 011°27'  

Dump ship's entire track history